sensor_id;sensor_type;location;lat;lon;timestamp;pressure;altitude;pressure_sealevel;temperature;humidity
73267;BME280;61495;53.400;7.608;2022-10-04T00:02:49;102319.25;;;10.81;82.16
73267;BME280;61495;53.400;7.608;2022-10-04T00:05:17;102317.22;;;10.83;83.07
73267;BME280;61495;53.400;7.608;2022-10-04T00:07:49;102317.22;;;10.83;83.02
73267;BME280;61495;53.400;7.608;2022-10-04T00:10:21;102314.19;;;10.86;83.87
73267;BME280;61495;53.400;7.608;2022-10-04T00:12:49;102319.34;;;10.87;82.93
73267;BME280;61495;53.400;7.608;2022-10-04T00:15:30;102309.31;;;10.81;84.12
73267;BME280;61495;53.400;7.608;2022-10-04T00:23:26;102289.22;;;10.85;84.00
73267;BME280;61495;53.400;7.608;2022-10-04T00:39:03;102291.66;;;11.03;83.70
73267;BME280;61495;53.400;7.608;2022-10-04T00:44:28;102289.63;;;11.05;83.48
73267;BME280;61495;53.400;7.608;2022-10-04T00:46:55;102281.94;;;11.02;83.17
73267;BME280;61495;53.400;7.608;2022-10-04T00:49:28;102275.56;;;11.03;83.09
73267;BME280;61495;53.400;7.608;2022-10-04T00:54:33;102285.59;;;11.09;83.54
73267;BME280;61495;53.400;7.608;2022-10-04T00:57:04;102271.53;;;11.07;83.19
73267;BME280;61495;53.400;7.608;2022-10-04T01:02:19;102253.47;;;11.01;83.28
73267;BME280;61495;53.400;7.608;2022-10-04T01:05:05;102270.00;;;11.12;84.87
73267;BME280;61495;53.400;7.608;2022-10-04T01:07:36;102260.13;;;11.13;82.97
73267;BME280;61495;53.400;7.608;2022-10-04T01:10:35;102253.06;;;11.12;83.86
73267;BME280;61495;53.400;7.608;2022-10-04T01:13:08;102214.09;;;10.93;82.79
73267;BME280;61495;53.400;7.608;2022-10-04T01:15:59;102237.47;;;11.15;83.87
73267;BME280;61495;53.400;7.608;2022-10-04T01:18:29;102233.94;;;11.15;84.16
73267;BME280;61495;53.400;7.608;2022-10-04T01:29:03;102216.84;;;11.16;84.06
73267;BME280;61495;53.400;7.608;2022-10-04T01:31:32;102208.44;;;11.19;83.75
73267;BME280;61495;53.400;7.608;2022-10-04T01:34:02;102211.13;;;11.19;83.42
73267;BME280;61495;53.400;7.608;2022-10-04T01:36:29;102198.78;;;11.02;83.61
73267;BME280;61495;53.400;7.608;2022-10-04T01:38:55;102206.09;;;11.16;83.94
73267;BME280;61495;53.400;7.608;2022-10-04T01:41:28;102214.44;;;11.21;83.80
73267;BME280;61495;53.400;7.608;2022-10-04T01:43:59;102217.50;;;11.18;83.33
73267;BME280;61495;53.400;7.608;2022-10-04T01:46:32;102207.75;;;11.17;83.16
73267;BME280;61495;53.400;7.608;2022-10-04T01:49:08;102204.91;;;11.19;83.60
73267;BME280;61495;53.400;7.608;2022-10-04T01:51:43;102199.06;;;11.15;84.13
73267;BME280;61495;53.400;7.608;2022-10-04T01:54:17;102208.59;;;11.18;83.29
73267;BME280;61495;53.400;7.608;2022-10-04T01:56:47;102209.94;;;11.22;84.23
73267;BME280;61495;53.400;7.608;2022-10-04T01:59:21;102210.78;;;11.22;82.97
73267;BME280;61495;53.400;7.608;2022-10-04T02:01:59;102178.03;;;11.04;84.68
73267;BME280;61495;53.400;7.608;2022-10-04T02:04:30;102199.00;;;11.23;83.20
73267;BME280;61495;53.400;7.608;2022-10-04T02:06:59;102182.63;;;11.18;83.96
73267;BME280;61495;53.400;7.608;2022-10-04T02:09:31;102190.97;;;11.23;83.58
73267;BME280;61495;53.400;7.608;2022-10-04T02:11:59;102190.97;;;11.23;83.94
73267;BME280;61495;53.400;7.608;2022-10-04T02:14:29;102189.66;;;11.19;83.88
73267;BME280;61495;53.400;7.608;2022-10-04T02:17:00;102180.28;;;11.15;82.90
73267;BME280;61495;53.400;7.608;2022-10-04T02:19:34;102190.13;;;11.23;83.35
73267;BME280;61495;53.400;7.608;2022-10-04T02:22:04;102186.50;;;11.15;82.68
73267;BME280;61495;53.400;7.608;2022-10-04T02:24:37;102207.88;;;11.24;82.54
73267;BME280;61495;53.400;7.608;2022-10-04T02:27:03;102195.19;;;11.18;82.64
73267;BME280;61495;53.400;7.608;2022-10-04T02:29:30;102202.88;;;11.21;82.82
73267;BME280;61495;53.400;7.608;2022-10-04T02:31:56;102178.59;;;11.14;84.96
73267;BME280;61495;53.400;7.608;2022-10-04T02:34:41;102168.22;;;11.11;83.37
73267;BME280;61495;53.400;7.608;2022-10-04T02:37:07;102166.88;;;11.15;83.82
73267;BME280;61495;53.400;7.608;2022-10-04T02:39:39;102171.53;;;11.21;84.02
73267;BME280;61495;53.400;7.608;2022-10-04T02:44:57;102162.47;;;11.22;84.33
73267;BME280;61495;53.400;7.608;2022-10-04T02:47:30;102166.16;;;11.21;84.10
73267;BME280;61495;53.400;7.608;2022-10-04T02:50:04;102157.28;;;11.21;83.35
73267;BME280;61495;53.400;7.608;2022-10-04T02:53:07;102155.44;;;11.21;84.43
73267;BME280;61495;53.400;7.608;2022-10-04T02:55:36;102158.47;;;11.18;83.80
73267;BME280;61495;53.400;7.608;2022-10-04T02:58:08;102133.84;;;11.14;83.92
73267;BME280;61495;53.400;7.608;2022-10-04T03:00:45;102138.38;;;11.14;83.55
73267;BME280;61495;53.400;7.608;2022-10-04T03:06:07;102128.84;;;11.11;82.97
73267;BME280;61495;53.400;7.608;2022-10-04T03:11:10;102143.38;;;11.17;83.29
73267;BME280;61495;53.400;7.608;2022-10-04T03:13:39;102130.03;;;11.09;83.56
73267;BME280;61495;53.400;7.608;2022-10-04T03:16:06;102143.56;;;11.15;83.99
73267;BME280;61495;53.400;7.608;2022-10-04T03:18:34;102134.69;;;11.15;84.35
73267;BME280;61495;53.400;7.608;2022-10-04T03:21:01;102131.03;;;11.08;84.22
73267;BME280;61495;53.400;7.608;2022-10-04T03:23:30;102109.28;;;11.03;83.68
73267;BME280;61495;53.400;7.608;2022-10-04T03:26:12;102124.31;;;11.12;84.10
73267;BME280;61495;53.400;7.608;2022-10-04T03:28:42;102127.66;;;11.14;84.42
73267;BME280;61495;53.400;7.608;2022-10-04T03:31:11;102120.50;;;11.06;84.04
73267;BME280;61495;53.400;7.608;2022-10-04T03:33:38;102123.66;;;11.10;83.47
73267;BME280;61495;53.400;7.608;2022-10-04T03:36:05;102125.50;;;11.09;83.14
73267;BME280;61495;53.400;7.608;2022-10-04T03:38:33;102117.97;;;11.05;83.82
73267;BME280;61495;53.400;7.608;2022-10-04T03:41:00;102120.03;;;11.03;83.53
73267;BME280;61495;53.400;7.608;2022-10-04T03:43:32;102117.97;;;11.05;83.15
73267;BME280;61495;53.400;7.608;2022-10-04T03:46:00;102115.50;;;11.03;82.72
73267;BME280;61495;53.400;7.608;2022-10-04T03:48:47;102114.84;;;11.01;83.90
73267;BME280;61495;53.400;7.608;2022-10-04T03:51:25;102111.34;;;11.01;83.15
73267;BME280;61495;53.400;7.608;2022-10-04T03:53:54;102100.47;;;10.94;82.71
73267;BME280;61495;53.400;7.608;2022-10-04T03:56:25;102115.38;;;10.97;83.38
73267;BME280;61495;53.400;7.608;2022-10-04T03:58:52;102112.03;;;10.95;82.97
73267;BME280;61495;53.400;7.608;2022-10-04T04:06:55;102114.75;;;10.87;82.98
73267;BME280;61495;53.400;7.608;2022-10-04T04:09:45;102116.78;;;10.85;83.23
73267;BME280;61495;53.400;7.608;2022-10-04T04:12:21;102102.59;;;10.76;83.05
73267;BME280;61495;53.400;7.608;2022-10-04T04:14:49;102095.47;;;10.69;82.96
73267;BME280;61495;53.400;7.608;2022-10-04T04:19:57;102109.50;;;10.71;83.09
73267;BME280;61495;53.400;7.608;2022-10-04T04:22:23;102116.91;;;10.69;83.58
73267;BME280;61495;53.400;7.608;2022-10-04T04:24:49;102117.53;;;10.71;83.34
73267;BME280;61495;53.400;7.608;2022-10-04T04:27:16;102104.34;;;10.61;83.07
73267;BME280;61495;53.400;7.608;2022-10-04T04:29:52;102111.88;;;10.66;82.96
73267;BME280;61495;53.400;7.608;2022-10-04T04:32:25;102107.88;;;10.62;83.31
73267;BME280;61495;53.400;7.608;2022-10-04T04:35:05;102108.41;;;10.57;83.36
73267;BME280;61495;53.400;7.608;2022-10-04T04:37:35;102112.44;;;10.53;82.88
73267;BME280;61495;53.400;7.608;2022-10-04T04:40:19;102116.31;;;10.50;82.85
73267;BME280;61495;53.400;7.608;2022-10-04T04:42:46;102098.59;;;10.41;83.02
73267;BME280;61495;53.400;7.608;2022-10-04T04:45:18;102104.47;;;10.45;83.03
73267;BME280;61495;53.400;7.608;2022-10-04T04:47:48;102107.31;;;10.43;83.56
73267;BME280;61495;53.400;7.608;2022-10-04T04:50:15;102104.81;;;10.42;83.57
73267;BME280;61495;53.400;7.608;2022-10-04T04:52:48;102091.28;;;10.35;83.55
73267;BME280;61495;53.400;7.608;2022-10-04T04:55:21;102102.63;;;10.37;84.08
73267;BME280;61495;53.400;7.608;2022-10-04T04:57:47;102098.28;;;10.36;83.88
73267;BME280;61495;53.400;7.608;2022-10-04T05:00:19;102096.31;;;10.30;83.95
73267;BME280;61495;53.400;7.608;2022-10-04T05:02:53;102089.28;;;10.29;84.55
73267;BME280;61495;53.400;7.608;2022-10-04T05:05:32;102085.97;;;10.27;84.51
73267;BME280;61495;53.400;7.608;2022-10-04T05:08:21;102093.66;;;10.30;84.45
73267;BME280;61495;53.400;7.608;2022-10-04T05:11:00;102094.16;;;10.26;84.48
73267;BME280;61495;53.400;7.608;2022-10-04T05:13:33;102070.09;;;10.18;84.48
73267;BME280;61495;53.400;7.608;2022-10-04T05:16:01;102061.69;;;10.13;84.62
73267;BME280;61495;53.400;7.608;2022-10-04T05:18:30;102080.75;;;10.26;84.62
73267;BME280;61495;53.400;7.608;2022-10-04T05:21:03;102073.91;;;10.23;84.61
73267;BME280;61495;53.400;7.608;2022-10-04T05:23:29;102063.91;;;10.17;84.23
73267;BME280;61495;53.400;7.608;2022-10-04T05:25:54;102072.56;;;10.19;84.83
73267;BME280;61495;53.400;7.608;2022-10-04T05:28:20;102065.09;;;10.15;84.61
73267;BME280;61495;53.400;7.608;2022-10-04T05:33:35;102073.41;;;10.20;84.91
73267;BME280;61495;53.400;7.608;2022-10-04T05:41:56;102088.00;;;10.17;85.55
73267;BME280;61495;53.400;7.608;2022-10-04T05:44:26;102084.47;;;10.17;85.17
73267;BME280;61495;53.400;7.608;2022-10-04T05:46:55;102065.75;;;10.09;85.05
73267;BME280;61495;53.400;7.608;2022-10-04T05:49:22;102081.81;;;10.17;85.21
73267;BME280;61495;53.400;7.608;2022-10-04T05:52:01;102068.41;;;10.17;84.95
73267;BME280;61495;53.400;7.608;2022-10-04T05:54:34;102067.03;;;10.13;85.79
73267;BME280;61495;53.400;7.608;2022-10-04T06:05:12;102084.97;;;10.20;85.38
73267;BME280;61495;53.400;7.608;2022-10-04T06:10:41;102078.44;;;10.23;86.44
73267;BME280;61495;53.400;7.608;2022-10-04T06:13:24;102056.69;;;10.10;85.86
73267;BME280;61495;53.400;7.608;2022-10-04T06:24:12;102076.53;;;10.31;87.03
73267;BME280;61495;53.400;7.608;2022-10-04T06:26:47;102078.22;;;10.32;85.80
73267;BME280;61495;53.400;7.608;2022-10-04T06:29:17;102054.50;;;10.21;85.93
73267;BME280;61495;53.400;7.608;2022-10-04T06:32:29;102068.81;;;10.36;86.71
73267;BME280;61495;53.400;7.608;2022-10-04T06:49:53;102046.59;;;10.58;86.53
73267;BME280;61495;53.400;7.608;2022-10-04T06:55:32;102053.16;;;10.79;86.70
73267;BME280;61495;53.400;7.608;2022-10-04T06:58:27;102063.78;;;10.95;86.53
73267;BME280;61495;53.400;7.608;2022-10-04T07:01:18;102057.38;;;10.96;86.24
73267;BME280;61495;53.400;7.608;2022-10-04T07:06:22;102065.66;;;11.09;85.19
73267;BME280;61495;53.400;7.608;2022-10-04T07:08:52;102064.31;;;11.13;85.80
73267;BME280;61495;53.400;7.608;2022-10-04T07:11:31;102056.63;;;11.10;85.63
73267;BME280;61495;53.400;7.608;2022-10-04T07:16:56;102069.22;;;11.24;85.15
73267;BME280;61495;53.400;7.608;2022-10-04T07:19:29;102048.66;;;11.16;85.54
73267;BME280;61495;53.400;7.608;2022-10-04T07:30:15;102044.81;;;11.19;85.87
73267;BME280;61495;53.400;7.608;2022-10-04T07:32:57;102063.63;;;11.34;85.68
73267;BME280;61495;53.400;7.608;2022-10-04T07:35:35;102073.06;;;11.44;85.75
73267;BME280;61495;53.400;7.608;2022-10-04T07:43:20;102081.34;;;11.57;85.67
73267;BME280;61495;53.400;7.608;2022-10-04T07:45:48;102076.63;;;11.59;85.47
73267;BME280;61495;53.400;7.608;2022-10-04T07:48:18;102078.56;;;11.65;86.03
73267;BME280;61495;53.400;7.608;2022-10-04T07:53:20;102054.72;;;11.70;85.86
73267;BME280;61495;53.400;7.608;2022-10-04T07:55:54;102048.59;;;11.77;85.41
73267;BME280;61495;53.400;7.608;2022-10-04T07:58:34;102056.28;;;11.80;85.69
73267;BME280;61495;53.400;7.608;2022-10-04T08:07:01;102067.41;;;11.91;84.98
73267;BME280;61495;53.400;7.608;2022-10-04T08:12:13;102074.56;;;11.99;84.72
73267;BME280;61495;53.400;7.608;2022-10-04T08:14:47;102061.75;;;12.01;84.50
73267;BME280;61495;53.400;7.608;2022-10-04T08:17:29;102060.63;;;12.10;84.95
73267;BME280;61495;53.400;7.608;2022-10-04T08:23:12;102052.56;;;12.24;84.33
73267;BME280;61495;53.400;7.608;2022-10-04T08:32:02;102068.09;;;12.79;84.16
73267;BME280;61495;53.400;7.608;2022-10-04T08:46:35;102037.63;;;13.70;82.60
73267;BME280;61495;53.400;7.608;2022-10-04T09:04:14;102060.47;;;14.76;77.46
73267;BME280;61495;53.400;7.608;2022-10-04T09:06:57;102052.41;;;14.82;78.89
73267;BME280;61495;53.400;7.608;2022-10-04T09:21:10;102047.88;;;15.68;78.13
73267;BME280;61495;53.400;7.608;2022-10-04T09:26:49;102041.59;;;15.94;75.10
73267;BME280;61495;53.400;7.608;2022-10-04T09:29:47;102039.66;;;16.07;75.33
73267;BME280;61495;53.400;7.608;2022-10-04T09:46:50;102008.50;;;16.81;70.31
73267;BME280;61495;53.400;7.608;2022-10-04T09:49:37;102011.66;;;17.02;70.93
73267;BME280;61495;53.400;7.608;2022-10-04T09:52:27;102006.75;;;17.17;72.00
73267;BME280;61495;53.400;7.608;2022-10-04T09:55:08;102016.25;;;17.27;70.92
73267;BME280;61495;53.400;7.608;2022-10-04T09:57:57;102011.47;;;17.47;70.21
73267;BME280;61495;53.400;7.608;2022-10-04T10:00:38;102003.59;;;17.45;71.68
73267;BME280;61495;53.400;7.608;2022-10-04T10:30:48;102006.38;;;18.29;65.99
73267;BME280;61495;53.400;7.608;2022-10-04T10:38:30;102004.28;;;18.31;64.19
73267;BME280;61495;53.400;7.608;2022-10-04T10:46:32;101989.03;;;18.49;66.80
73267;BME280;61495;53.400;7.608;2022-10-04T10:58:05;101962.66;;;18.79;64.57
73267;BME280;61495;53.400;7.608;2022-10-04T11:17:17;101954.63;;;18.84;65.12
73267;BME280;61495;53.400;7.608;2022-10-04T11:26:18;101955.94;;;18.81;65.07
73267;BME280;61495;53.400;7.608;2022-10-04T11:34:35;101946.03;;;18.87;64.77
73267;BME280;61495;53.400;7.608;2022-10-04T12:07:37;101895.13;;;19.17;63.48
73267;BME280;61495;53.400;7.608;2022-10-04T12:10:39;101906.91;;;19.34;64.14
73267;BME280;61495;53.400;7.608;2022-10-04T12:13:22;101902.22;;;19.42;64.03
73267;BME280;61495;53.400;7.608;2022-10-04T12:24:22;101903.72;;;19.37;64.06
73267;BME280;61495;53.400;7.608;2022-10-04T12:27:04;101902.66;;;19.38;62.46
73267;BME280;61495;53.400;7.608;2022-10-04T12:30:03;101890.84;;;19.21;61.34
73267;BME280;61495;53.400;7.608;2022-10-04T12:41:00;101868.66;;;19.48;63.28
73267;BME280;61495;53.400;7.608;2022-10-04T12:52:14;101865.09;;;19.47;61.99
73267;BME280;61495;53.400;7.608;2022-10-04T12:55:08;101864.16;;;19.42;61.29
73267;BME280;61495;53.400;7.608;2022-10-04T12:58:01;101868.66;;;19.48;61.95
73267;BME280;61495;53.400;7.608;2022-10-04T13:00:39;101849.34;;;19.49;61.97
73267;BME280;61495;53.400;7.608;2022-10-04T13:12:17;101844.97;;;19.60;61.90
73267;BME280;61495;53.400;7.608;2022-10-04T13:14:41;101835.63;;;19.56;60.81
73267;BME280;61495;53.400;7.608;2022-10-04T13:22:52;101822.53;;;19.53;60.94
73267;BME280;61495;53.400;7.608;2022-10-04T13:31:00;101828.19;;;19.63;61.75
73267;BME280;61495;53.400;7.608;2022-10-04T13:33:54;101844.22;;;19.64;59.91
73267;BME280;61495;53.400;7.608;2022-10-04T13:41:35;101852.03;;;19.61;61.28
73267;BME280;61495;53.400;7.608;2022-10-04T13:55:38;101834.28;;;19.70;60.58
73267;BME280;61495;53.400;7.608;2022-10-04T13:58:51;101830.72;;;19.69;60.57
73267;BME280;61495;53.400;7.608;2022-10-04T14:11:59;101808.41;;;19.67;61.29
73267;BME280;61495;53.400;7.608;2022-10-04T14:17:48;101791.69;;;19.47;59.95
73267;BME280;61495;53.400;7.608;2022-10-04T14:34:19;101801.28;;;19.38;60.48
73267;BME280;61495;53.400;7.608;2022-10-04T14:45:31;101814.41;;;19.29;59.51
73267;BME280;61495;53.400;7.608;2022-10-04T14:48:17;101806.34;;;19.34;59.89
73267;BME280;61495;53.400;7.608;2022-10-04T14:56:12;101790.34;;;19.10;59.81
73267;BME280;61495;53.400;7.608;2022-10-04T15:01:24;101793.31;;;19.08;59.55
73267;BME280;61495;53.400;7.608;2022-10-04T15:04:26;101789.63;;;19.14;59.77
73267;BME280;61495;53.400;7.608;2022-10-04T15:06:59;101768.16;;;19.01;59.70
73267;BME280;61495;53.400;7.608;2022-10-04T15:09:48;101788.34;;;19.05;59.86
73267;BME280;61495;53.400;7.608;2022-10-04T15:25:51;101802.69;;;18.77;60.24
73267;BME280;61495;53.400;7.608;2022-10-04T15:34:11;101794.19;;;18.62;59.88
73267;BME280;61495;53.400;7.608;2022-10-04T15:42:33;101784.59;;;18.37;60.86
73267;BME280;61495;53.400;7.608;2022-10-04T15:52:52;101794.13;;;18.16;60.77
73267;BME280;61495;53.400;7.608;2022-10-04T15:58:16;101795.78;;;18.05;61.00
73267;BME280;61495;53.400;7.608;2022-10-04T16:06:51;101772.81;;;17.78;60.86
73267;BME280;61495;53.400;7.608;2022-10-04T16:22:33;101765.22;;;17.39;63.31
73267;BME280;61495;53.400;7.608;2022-10-04T16:33:33;101769.31;;;17.11;63.90
73267;BME280;61495;53.400;7.608;2022-10-04T16:36:15;101777.28;;;17.06;64.40
73267;BME280;61495;53.400;7.608;2022-10-04T16:38:49;101768.19;;;17.01;63.81
73267;BME280;61495;53.400;7.608;2022-10-04T16:41:42;101767.50;;;16.87;64.68
73267;BME280;61495;53.400;7.608;2022-10-04T16:44:35;101774.44;;;16.83;64.34
73267;BME280;61495;53.400;7.608;2022-10-04T16:47:20;101774.13;;;16.73;64.93
73267;BME280;61495;53.400;7.608;2022-10-04T16:49:52;101771.03;;;16.70;64.82
73267;BME280;61495;53.400;7.608;2022-10-04T17:01:20;101774.22;;;16.42;66.11
73267;BME280;61495;53.400;7.608;2022-10-04T17:23:29;101764.63;;;15.90;66.66
73267;BME280;61495;53.400;7.608;2022-10-04T17:26:12;101764.91;;;15.82;66.53
73267;BME280;61495;53.400;7.608;2022-10-04T17:28:56;101748.81;;;15.62;66.54
73267;BME280;61495;53.400;7.608;2022-10-04T17:34:20;101762.16;;;15.57;66.63
73267;BME280;61495;53.400;7.608;2022-10-04T17:48:17;101749.38;;;15.33;67.62
73267;BME280;61495;53.400;7.608;2022-10-04T17:54:22;101728.72;;;15.14;67.64
73267;BME280;61495;53.400;7.608;2022-10-04T17:57:19;101728.13;;;15.05;67.67
73267;BME280;61495;53.400;7.608;2022-10-04T17:59:52;101729.19;;;14.97;67.91
73267;BME280;61495;53.400;7.608;2022-10-04T18:02:25;101733.75;;;14.97;68.07
73267;BME280;61495;53.400;7.608;2022-10-04T18:04:56;101701.03;;;14.80;68.27
73267;BME280;61495;53.400;7.608;2022-10-04T18:07:27;101735.66;;;14.96;67.87
73267;BME280;61495;53.400;7.608;2022-10-04T18:10:18;101720.91;;;14.92;68.57
73267;BME280;61495;53.400;7.608;2022-10-04T18:12:57;101743.53;;;14.91;68.51
73267;BME280;61495;53.400;7.608;2022-10-04T18:15:51;101754.16;;;14.86;68.73
73267;BME280;61495;53.400;7.608;2022-10-04T18:18:29;101750.22;;;14.82;68.57
73267;BME280;61495;53.400;7.608;2022-10-04T18:23:31;101765.59;;;14.75;68.44
73267;BME280;61495;53.400;7.608;2022-10-04T18:26:13;101776.41;;;14.75;68.71
73267;BME280;61495;53.400;7.608;2022-10-04T18:28:44;101772.03;;;14.74;68.56
73267;BME280;61495;53.400;7.608;2022-10-04T18:31:37;101755.66;;;14.69;69.16
73267;BME280;61495;53.400;7.608;2022-10-04T18:37:17;101757.34;;;14.64;70.07
73267;BME280;61495;53.400;7.608;2022-10-04T18:39:46;101762.31;;;14.67;69.09
73267;BME280;61495;53.400;7.608;2022-10-04T18:42:23;101757.94;;;14.66;69.32
73267;BME280;61495;53.400;7.608;2022-10-04T18:44:59;101744.44;;;14.66;69.58
73267;BME280;61495;53.400;7.608;2022-10-04T18:47:32;101744.66;;;14.64;69.31
73267;BME280;61495;53.400;7.608;2022-10-04T18:50:00;101734.91;;;14.63;69.52
73267;BME280;61495;53.400;7.608;2022-10-04T18:55:28;101724.97;;;14.64;69.44
73267;BME280;61495;53.400;7.608;2022-10-04T19:01:02;101723.50;;;14.61;70.05
73267;BME280;61495;53.400;7.608;2022-10-04T19:04:09;101729.13;;;14.60;70.18
73267;BME280;61495;53.400;7.608;2022-10-04T19:06:37;101725.38;;;14.61;70.08
73267;BME280;61495;53.400;7.608;2022-10-04T19:09:37;101726.19;;;14.61;70.07
73267;BME280;61495;53.400;7.608;2022-10-04T19:12:20;101740.31;;;14.63;70.43
73267;BME280;61495;53.400;7.608;2022-10-04T19:15:16;101739.84;;;14.73;70.73
73267;BME280;61495;53.400;7.608;2022-10-04T19:18:12;101756.84;;;14.86;70.08
73267;BME280;61495;53.400;7.608;2022-10-04T19:21:02;101746.28;;;14.78;70.21
73267;BME280;61495;53.400;7.608;2022-10-04T19:26:33;101723.28;;;14.69;70.26
73267;BME280;61495;53.400;7.608;2022-10-04T19:32:03;101730.31;;;14.70;70.21
73267;BME280;61495;53.400;7.608;2022-10-04T19:34:55;101717.69;;;14.64;70.43
73267;BME280;61495;53.400;7.608;2022-10-04T19:37:40;101711.66;;;14.62;69.87
73267;BME280;61495;53.400;7.608;2022-10-04T19:43:10;101696.53;;;14.61;70.26
73267;BME280;61495;53.400;7.608;2022-10-04T19:48:27;101675.78;;;14.55;70.37
73267;BME280;61495;53.400;7.608;2022-10-04T19:51:12;101681.41;;;14.60;70.70
73267;BME280;61495;53.400;7.608;2022-10-04T19:53:42;101680.75;;;14.58;70.45
73267;BME280;61495;53.400;7.608;2022-10-04T19:56:17;101676.22;;;14.52;70.69
73267;BME280;61495;53.400;7.608;2022-10-04T19:58:43;101678.50;;;14.55;70.35
73267;BME280;61495;53.400;7.608;2022-10-04T20:01:16;101676.84;;;14.54;70.25
73267;BME280;61495;53.400;7.608;2022-10-04T20:03:43;101678.72;;;14.54;71.13
73267;BME280;61495;53.400;7.608;2022-10-04T20:06:19;101665.66;;;14.44;70.85
73267;BME280;61495;53.400;7.608;2022-10-04T20:08:51;101671.88;;;14.51;70.70
73267;BME280;61495;53.400;7.608;2022-10-04T20:11:24;101673.94;;;14.49;70.74
73267;BME280;61495;53.400;7.608;2022-10-04T20:19:18;101686.81;;;14.47;70.48
73267;BME280;61495;53.400;7.608;2022-10-04T20:21:47;101687.25;;;14.44;70.99
73267;BME280;61495;53.400;7.608;2022-10-04T20:34:54;101674.81;;;14.43;71.35
73267;BME280;61495;53.400;7.608;2022-10-04T20:37:21;101669.22;;;14.38;71.49
73267;BME280;61495;53.400;7.608;2022-10-04T20:40:06;101649.13;;;14.34;71.20
73267;BME280;61495;53.400;7.608;2022-10-04T20:50:00;101671.06;;;14.44;71.43
73267;BME280;61495;53.400;7.608;2022-10-04T20:52:31;101669.44;;;14.43;71.54
73267;BME280;61495;53.400;7.608;2022-10-04T20:54:58;101676.44;;;14.44;71.46
73267;BME280;61495;53.400;7.608;2022-10-04T20:57:28;101673.75;;;14.44;71.43
73267;BME280;61495;53.400;7.608;2022-10-04T20:59:55;101645.38;;;14.35;71.48
73267;BME280;61495;53.400;7.608;2022-10-04T21:02:23;101670.22;;;14.43;71.60
73267;BME280;61495;53.400;7.608;2022-10-04T21:04:49;101677.09;;;14.46;71.74
73267;BME280;61495;53.400;7.608;2022-10-04T21:07:23;101666.50;;;14.38;71.81
73267;BME280;61495;53.400;7.608;2022-10-04T21:09:50;101668.19;;;14.39;71.81
73267;BME280;61495;53.400;7.608;2022-10-04T21:15:17;101678.53;;;14.49;71.73
73267;BME280;61495;53.400;7.608;2022-10-04T21:18:06;101656.97;;;14.35;72.13
73267;BME280;61495;53.400;7.608;2022-10-04T21:20:49;101652.84;;;14.33;71.53
73267;BME280;61495;53.400;7.608;2022-10-04T21:23:29;101670.22;;;14.50;71.66
73267;BME280;61495;53.400;7.608;2022-10-04T21:26:21;101668.13;;;14.52;71.92
73267;BME280;61495;53.400;7.608;2022-10-04T21:28:51;101664.03;;;14.43;71.69
73267;BME280;61495;53.400;7.608;2022-10-04T21:31:17;101661.09;;;14.44;72.14
73267;BME280;61495;53.400;7.608;2022-10-04T21:33:42;101655.31;;;14.41;72.06
73267;BME280;61495;53.400;7.608;2022-10-04T21:36:08;101673.53;;;14.52;72.11
73267;BME280;61495;53.400;7.608;2022-10-04T21:38:33;101666.50;;;14.51;71.69
73267;BME280;61495;53.400;7.608;2022-10-04T21:40:59;101656.13;;;14.48;72.20
73267;BME280;61495;53.400;7.608;2022-10-04T21:43:25;101671.47;;;14.54;72.59
73267;BME280;61495;53.400;7.608;2022-10-04T21:45:51;101658.16;;;14.53;72.48
73267;BME280;61495;53.400;7.608;2022-10-04T21:48:16;101659.00;;;14.53;72.29
73267;BME280;61495;53.400;7.608;2022-10-04T21:50:42;101644.50;;;14.54;72.55
73267;BME280;61495;53.400;7.608;2022-10-04T21:53:08;101648.03;;;14.55;72.30
73267;BME280;61495;53.400;7.608;2022-10-04T21:55:34;101630.00;;;14.42;72.57
73267;BME280;61495;53.400;7.608;2022-10-04T21:57:59;101648.66;;;14.50;72.31
73267;BME280;61495;53.400;7.608;2022-10-04T22:00:24;101660.25;;;14.57;72.42
73267;BME280;61495;53.400;7.608;2022-10-04T22:02:50;101657.75;;;14.56;72.98
73267;BME280;61495;53.400;7.608;2022-10-04T22:05:15;101654.03;;;14.57;72.61
73267;BME280;61495;53.400;7.608;2022-10-04T22:07:41;101659.59;;;14.55;72.54
73267;BME280;61495;53.400;7.608;2022-10-04T22:10:07;101655.69;;;14.58;72.76
73267;BME280;61495;53.400;7.608;2022-10-04T22:12:32;101634.56;;;14.48;72.73
73267;BME280;61495;53.400;7.608;2022-10-04T22:14:58;101646.97;;;14.56;73.02
73267;BME280;61495;53.400;7.608;2022-10-04T22:17:23;101643.00;;;14.58;72.81
73267;BME280;61495;53.400;7.608;2022-10-04T22:19:48;101633.28;;;14.51;72.94
73267;BME280;61495;53.400;7.608;2022-10-04T22:22:15;101636.59;;;14.53;72.76
73267;BME280;61495;53.400;7.608;2022-10-04T22:24:41;101637.00;;;14.56;72.79
73267;BME280;61495;53.400;7.608;2022-10-04T22:27:25;101634.13;;;14.51;73.56
73267;BME280;61495;53.400;7.608;2022-10-04T22:29:56;101644.66;;;14.59;73.07
73267;BME280;61495;53.400;7.608;2022-10-04T22:32:24;101650.28;;;14.58;73.97
73267;BME280;61495;53.400;7.608;2022-10-04T22:34:51;101649.22;;;14.59;73.46
73267;BME280;61495;53.400;7.608;2022-10-04T22:37:23;101633.28;;;14.51;73.27
73267;BME280;61495;53.400;7.608;2022-10-04T22:39:50;101644.66;;;14.59;73.27
73267;BME280;61495;53.400;7.608;2022-10-04T22:42:17;101647.59;;;14.58;73.40
73267;BME280;61495;53.400;7.608;2022-10-04T22:44:43;101632.69;;;14.49;73.38
73267;BME280;61495;53.400;7.608;2022-10-04T22:47:13;101631.63;;;14.50;73.36
73267;BME280;61495;53.400;7.608;2022-10-04T22:49:44;101646.53;;;14.59;73.52
73267;BME280;61495;53.400;7.608;2022-10-04T22:52:18;101632.03;;;14.60;73.63
73267;BME280;61495;53.400;7.608;2022-10-04T22:54:46;101624.56;;;14.55;73.50